sensor_id;sensor_type;location;lat;lon;timestamp;pressure;altitude;pressure_sealevel;temperature;humidity
66430;BME280;53242;51.694;10.006;2022-07-25T00:02:01;99346.31;;;23.83;40.07
66430;BME280;53242;51.694;10.006;2022-07-25T00:04:24;99340.63;;;23.85;40.22
66430;BME280;53242;51.694;10.006;2022-07-25T00:06:46;99337.75;;;23.76;40.40
66430;BME280;53242;51.694;10.006;2022-07-25T00:09:09;99344.69;;;23.82;40.17
66430;BME280;53242;51.694;10.006;2022-07-25T00:11:32;99335.06;;;23.76;40.17
66430;BME280;53242;51.694;10.006;2022-07-25T00:13:54;99335.88;;;23.76;40.12
66430;BME280;53242;51.694;10.006;2022-07-25T00:16:17;99331.00;;;23.78;40.20
66430;BME280;53242;51.694;10.006;2022-07-25T00:18:39;99328.94;;;23.70;40.40
66430;BME280;53242;51.694;10.006;2022-07-25T00:21:02;99325.72;;;23.68;40.44
66430;BME280;53242;51.694;10.006;2022-07-25T00:23:24;99330.56;;;23.66;40.53
66430;BME280;53242;51.694;10.006;2022-07-25T00:25:47;99321.69;;;23.65;40.37
66430;BME280;53242;51.694;10.006;2022-07-25T00:28:09;99322.28;;;23.62;40.37
66430;BME280;53242;51.694;10.006;2022-07-25T00:30:33;99321.41;;;23.38;40.80
66430;BME280;53242;51.694;10.006;2022-07-25T00:32:56;99312.47;;;23.47;40.70
66430;BME280;53242;51.694;10.006;2022-07-25T00:35:18;99315.63;;;23.55;40.45
66430;BME280;53242;51.694;10.006;2022-07-25T00:37:40;99312.16;;;23.49;40.47
66430;BME280;53242;51.694;10.006;2022-07-25T00:40:03;99313.25;;;23.48;40.51
66430;BME280;53242;51.694;10.006;2022-07-25T00:42:25;99307.66;;;23.44;40.54
66430;BME280;53242;51.694;10.006;2022-07-25T00:44:48;99309.22;;;23.45;40.45
66430;BME280;53242;51.694;10.006;2022-07-25T00:47:11;99309.75;;;23.47;40.41
66430;BME280;53242;51.694;10.006;2022-07-25T00:49:34;99311.94;;;23.45;40.97
66430;BME280;53242;51.694;10.006;2022-07-25T00:51:57;99300.59;;;23.48;40.45
66430;BME280;53242;51.694;10.006;2022-07-25T00:54:20;99301.19;;;23.40;40.54
66430;BME280;53242;51.694;10.006;2022-07-25T00:56:43;99292.19;;;23.26;41.01
66430;BME280;53242;51.694;10.006;2022-07-25T00:59:06;99298.16;;;23.23;40.97
66430;BME280;53242;51.694;10.006;2022-07-25T01:01:29;99292.97;;;23.31;40.64
66430;BME280;53242;51.694;10.006;2022-07-25T01:03:51;99290.78;;;23.34;40.67
66430;BME280;53242;51.694;10.006;2022-07-25T01:06:14;99286.75;;;23.31;40.48
66430;BME280;53242;51.694;10.006;2022-07-25T01:08:36;99292.47;;;23.24;40.56
66430;BME280;53242;51.694;10.006;2022-07-25T01:10:59;99290.06;;;23.23;40.87
66430;BME280;53242;51.694;10.006;2022-07-25T01:13:22;99286.81;;;23.26;40.61
66430;BME280;53242;51.694;10.006;2022-07-25T01:15:44;99287.63;;;23.26;40.79
66430;BME280;53242;51.694;10.006;2022-07-25T01:18:07;99282.78;;;23.23;40.84
66430;BME280;53242;51.694;10.006;2022-07-25T01:20:30;99276.91;;;23.21;40.78
66430;BME280;53242;51.694;10.006;2022-07-25T01:22:54;99286.06;;;23.20;40.70
66430;BME280;53242;51.694;10.006;2022-07-25T01:25:17;99271.00;;;23.19;40.80
66430;BME280;53242;51.694;10.006;2022-07-25T01:27:41;99271.28;;;23.12;41.17
66430;BME280;53242;51.694;10.006;2022-07-25T01:30:06;99271.06;;;23.09;41.16
66430;BME280;53242;51.694;10.006;2022-07-25T01:32:29;99274.06;;;23.02;41.52
66430;BME280;53242;51.694;10.006;2022-07-25T01:34:51;99264.16;;;22.97;41.32
66430;BME280;53242;51.694;10.006;2022-07-25T01:37:14;99261.75;;;22.96;41.41
66430;BME280;53242;51.694;10.006;2022-07-25T01:39:36;99266.38;;;22.90;41.44
66430;BME280;53242;51.694;10.006;2022-07-25T01:41:59;99262.81;;;22.95;41.39
66430;BME280;53242;51.694;10.006;2022-07-25T01:44:22;99265.28;;;22.91;41.58
66430;BME280;53242;51.694;10.006;2022-07-25T01:46:44;99268.25;;;22.90;41.56
66430;BME280;53242;51.694;10.006;2022-07-25T01:49:07;99268.78;;;22.92;41.65
66430;BME280;53242;51.694;10.006;2022-07-25T01:51:29;99262.63;;;22.86;41.59
66430;BME280;53242;51.694;10.006;2022-07-25T01:53:51;99260.47;;;22.88;41.55
66430;BME280;53242;51.694;10.006;2022-07-25T01:56:14;99256.19;;;22.82;41.70
66430;BME280;53242;51.694;10.006;2022-07-25T01:58:37;99261.09;;;22.80;41.72
66430;BME280;53242;51.694;10.006;2022-07-25T02:00:59;99256.50;;;22.80;41.88
66430;BME280;53242;51.694;10.006;2022-07-25T02:03:22;99259.97;;;22.81;41.74
66430;BME280;53242;51.694;10.006;2022-07-25T02:05:53;99263.78;;;22.80;41.83
66430;BME280;53242;51.694;10.006;2022-07-25T02:08:16;99260.56;;;22.78;42.01
66430;BME280;53242;51.694;10.006;2022-07-25T02:10:38;99254.09;;;22.79;42.12
66430;BME280;53242;51.694;10.006;2022-07-25T02:13:01;99259.19;;;22.80;41.96
66430;BME280;53242;51.694;10.006;2022-07-25T02:15:23;99254.88;;;22.79;42.15
66430;BME280;53242;51.694;10.006;2022-07-25T02:17:45;99256.56;;;22.70;42.42
66430;BME280;53242;51.694;10.006;2022-07-25T02:20:08;99246.59;;;22.71;42.46
66430;BME280;53242;51.694;10.006;2022-07-25T02:22:31;99244.97;;;22.75;42.46
66430;BME280;53242;51.694;10.006;2022-07-25T02:24:53;99246.88;;;22.69;42.77
66430;BME280;53242;51.694;10.006;2022-07-25T02:27:16;99238.81;;;22.69;42.36
66430;BME280;53242;51.694;10.006;2022-07-25T02:29:38;99234.75;;;22.72;42.63
66430;BME280;53242;51.694;10.006;2022-07-25T02:32:01;99230.50;;;22.65;42.68
66430;BME280;53242;51.694;10.006;2022-07-25T02:34:24;99232.69;;;22.63;42.68
66430;BME280;53242;51.694;10.006;2022-07-25T02:36:46;99233.19;;;22.65;42.65
66430;BME280;53242;51.694;10.006;2022-07-25T02:39:08;99231.63;;;22.64;42.83
66430;BME280;53242;51.694;10.006;2022-07-25T02:41:31;99221.94;;;22.63;42.66
66430;BME280;53242;51.694;10.006;2022-07-25T02:43:54;99213.03;;;22.63;42.45
66430;BME280;53242;51.694;10.006;2022-07-25T02:46:16;99207.16;;;22.61;42.81
66430;BME280;53242;51.694;10.006;2022-07-25T02:48:38;99208.53;;;22.58;42.53
66430;BME280;53242;51.694;10.006;2022-07-25T02:51:01;99208.00;;;22.56;42.50
66430;BME280;53242;51.694;10.006;2022-07-25T02:53:23;99194.03;;;22.54;42.61
66430;BME280;53242;51.694;10.006;2022-07-25T02:55:46;99188.38;;;22.56;42.42
66430;BME280;53242;51.694;10.006;2022-07-25T02:58:08;99183.03;;;22.50;42.85
66430;BME280;53242;51.694;10.006;2022-07-25T03:00:31;99177.13;;;22.48;42.96
66430;BME280;53242;51.694;10.006;2022-07-25T03:02:54;99177.69;;;22.45;42.92
66430;BME280;53242;51.694;10.006;2022-07-25T03:05:16;99167.28;;;22.39;43.06
66430;BME280;53242;51.694;10.006;2022-07-25T03:07:40;99162.09;;;22.42;42.86
66430;BME280;53242;51.694;10.006;2022-07-25T03:10:04;99160.25;;;22.43;43.07
66430;BME280;53242;51.694;10.006;2022-07-25T03:12:27;99162.09;;;22.42;43.03
66430;BME280;53242;51.694;10.006;2022-07-25T03:14:50;99169.69;;;22.40;42.81
66430;BME280;53242;51.694;10.006;2022-07-25T03:17:12;99177.41;;;22.47;42.66
66430;BME280;53242;51.694;10.006;2022-07-25T03:19:34;99183.56;;;22.47;42.71
66430;BME280;53242;51.694;10.006;2022-07-25T03:21:57;99181.03;;;22.22;44.29
66430;BME280;53242;51.694;10.006;2022-07-25T03:24:19;99190.72;;;22.23;44.52
66430;BME280;53242;51.694;10.006;2022-07-25T03:26:42;99191.09;;;22.06;45.45
66430;BME280;53242;51.694;10.006;2022-07-25T03:29:04;99192.25;;;21.89;45.67
66430;BME280;53242;51.694;10.006;2022-07-25T03:31:27;99185.28;;;21.88;45.60
66430;BME280;53242;51.694;10.006;2022-07-25T03:33:49;99182.84;;;21.92;45.72
66430;BME280;53242;51.694;10.006;2022-07-25T03:36:12;99171.59;;;21.90;45.95
66430;BME280;53242;51.694;10.006;2022-07-25T03:38:34;99175.91;;;21.80;46.32
66430;BME280;53242;51.694;10.006;2022-07-25T03:40:57;99170.59;;;21.70;46.91
66430;BME280;53242;51.694;10.006;2022-07-25T03:43:20;99170.66;;;21.60;47.17
66430;BME280;53242;51.694;10.006;2022-07-25T03:45:42;99164.78;;;21.58;47.21
66430;BME280;53242;51.694;10.006;2022-07-25T03:48:05;99161.50;;;21.66;46.44
66430;BME280;53242;51.694;10.006;2022-07-25T03:50:27;99151.00;;;21.70;46.18
66430;BME280;53242;51.694;10.006;2022-07-25T03:52:50;99159.28;;;21.78;45.65
66430;BME280;53242;51.694;10.006;2022-07-25T03:55:13;99156.56;;;21.89;45.12
66430;BME280;53242;51.694;10.006;2022-07-25T03:57:36;99164.59;;;21.89;45.28
66430;BME280;53242;51.694;10.006;2022-07-25T03:59:59;99167.63;;;21.77;46.02
66430;BME280;53242;51.694;10.006;2022-07-25T04:02:21;99166.03;;;21.76;46.50
66430;BME280;53242;51.694;10.006;2022-07-25T04:04:44;99158.47;;;21.78;46.58
66430;BME280;53242;51.694;10.006;2022-07-25T04:07:07;99151.75;;;21.80;46.68
66430;BME280;53242;51.694;10.006;2022-07-25T04:09:30;99158.56;;;21.57;47.73
66430;BME280;53242;51.694;10.006;2022-07-25T04:11:52;99155.63;;;21.59;47.88
66430;BME280;53242;51.694;10.006;2022-07-25T04:14:15;99160.22;;;21.43;48.74
66430;BME280;53242;51.694;10.006;2022-07-25T04:16:37;99154.56;;;21.49;48.64
66430;BME280;53242;51.694;10.006;2022-07-25T04:19:00;99139.53;;;21.48;48.75
66430;BME280;53242;51.694;10.006;2022-07-25T04:21:23;99141.66;;;21.51;49.14
66430;BME280;53242;51.694;10.006;2022-07-25T04:23:46;99140.91;;;21.41;49.51
66430;BME280;53242;51.694;10.006;2022-07-25T04:26:09;99147.09;;;21.41;49.37
66430;BME280;53242;51.694;10.006;2022-07-25T04:28:31;99147.09;;;21.36;49.75
66430;BME280;53242;51.694;10.006;2022-07-25T04:30:54;99141.47;;;21.32;49.68
66430;BME280;53242;51.694;10.006;2022-07-25T04:33:17;99147.09;;;21.36;49.66
66430;BME280;53242;51.694;10.006;2022-07-25T04:35:39;99141.16;;;21.39;49.55
66430;BME280;53242;51.694;10.006;2022-07-25T04:38:02;99139.03;;;21.36;49.65
66430;BME280;53242;51.694;10.006;2022-07-25T04:40:25;99140.41;;;21.33;49.70
66430;BME280;53242;51.694;10.006;2022-07-25T04:42:47;99138.47;;;21.39;49.82
66430;BME280;53242;51.694;10.006;2022-07-25T04:45:10;99131.00;;;21.31;49.84
66430;BME280;53242;51.694;10.006;2022-07-25T04:47:33;99129.38;;;21.35;49.87
66430;BME280;53242;51.694;10.006;2022-07-25T04:49:55;99127.78;;;21.34;49.86
66430;BME280;53242;51.694;10.006;2022-07-25T04:52:18;99131.53;;;21.38;49.95
66430;BME280;53242;51.694;10.006;2022-07-25T04:54:40;99122.16;;;21.35;50.27
66430;BME280;53242;51.694;10.006;2022-07-25T04:57:02;99126.97;;;21.39;50.11
66430;BME280;53242;51.694;10.006;2022-07-25T04:59:26;99119.47;;;21.35;50.06
66430;BME280;53242;51.694;10.006;2022-07-25T05:01:48;99118.94;;;21.33;50.57
66430;BME280;53242;51.694;10.006;2022-07-25T05:04:11;99111.91;;;21.38;50.22
66430;BME280;53242;51.694;10.006;2022-07-25T05:06:33;99104.13;;;21.41;50.33
66430;BME280;53242;51.694;10.006;2022-07-25T05:08:56;99108.66;;;21.51;50.30
66430;BME280;53242;51.694;10.006;2022-07-25T05:11:18;99103.31;;;21.46;50.44
66430;BME280;53242;51.694;10.006;2022-07-25T05:13:40;99094.16;;;21.47;50.71
66430;BME280;53242;51.694;10.006;2022-07-25T05:16:03;99089.50;;;21.73;49.65
66430;BME280;53242;51.694;10.006;2022-07-25T05:18:26;99086.59;;;22.04;48.86
66430;BME280;53242;51.694;10.006;2022-07-25T05:20:48;99084.44;;;22.41;47.75
66430;BME280;53242;51.694;10.006;2022-07-25T05:23:11;99088.00;;;22.60;47.64
66430;BME280;53242;51.694;10.006;2022-07-25T05:25:33;99098.59;;;22.76;47.36
66430;BME280;53242;51.694;10.006;2022-07-25T05:27:56;99093.41;;;22.85;47.44
66430;BME280;53242;51.694;10.006;2022-07-25T05:30:19;99090.44;;;23.10;46.97
66430;BME280;53242;51.694;10.006;2022-07-25T05:32:45;99089.34;;;23.36;46.81
66430;BME280;53242;51.694;10.006;2022-07-25T05:35:08;99078.66;;;23.50;46.13
66430;BME280;53242;51.694;10.006;2022-07-25T05:37:31;99080.31;;;23.64;45.47
66430;BME280;53242;51.694;10.006;2022-07-25T05:39:54;99074.16;;;23.64;45.92
66430;BME280;53242;51.694;10.006;2022-07-25T05:42:16;99077.00;;;23.73;45.75
66430;BME280;53242;51.694;10.006;2022-07-25T05:44:39;99075.88;;;23.74;45.40
66430;BME280;53242;51.694;10.006;2022-07-25T05:47:01;99077.13;;;23.81;45.45
66430;BME280;53242;51.694;10.006;2022-07-25T05:49:23;99077.34;;;23.85;45.08
66430;BME280;53242;51.694;10.006;2022-07-25T05:51:46;99075.41;;;23.91;44.89
66430;BME280;53242;51.694;10.006;2022-07-25T05:54:08;99078.06;;;24.10;44.79
66430;BME280;53242;51.694;10.006;2022-07-25T05:56:31;99069.72;;;24.25;44.39
66430;BME280;53242;51.694;10.006;2022-07-25T05:58:53;99068.25;;;24.33;44.46
66430;BME280;53242;51.694;10.006;2022-07-25T06:01:16;99066.25;;;24.06;45.08
66430;BME280;53242;51.694;10.006;2022-07-25T06:03:39;99060.25;;;24.42;44.40
66430;BME280;53242;51.694;10.006;2022-07-25T06:06:02;99066.16;;;24.44;44.63
66430;BME280;53242;51.694;10.006;2022-07-25T06:08:25;99051.88;;;24.57;44.03
66430;BME280;53242;51.694;10.006;2022-07-25T06:10:52;99050.16;;;24.67;44.58
66430;BME280;53242;51.694;10.006;2022-07-25T06:13:14;99039.25;;;24.72;44.19
66430;BME280;53242;51.694;10.006;2022-07-25T06:15:36;99048.94;;;24.73;44.24
66430;BME280;53242;51.694;10.006;2022-07-25T06:17:59;99057.41;;;24.66;44.47
66430;BME280;53242;51.694;10.006;2022-07-25T06:20:21;99050.31;;;24.70;44.22
66430;BME280;53242;51.694;10.006;2022-07-25T06:22:44;99045.13;;;24.88;43.42
66430;BME280;53242;51.694;10.006;2022-07-25T06:25:07;99052.63;;;25.05;43.50
66430;BME280;53242;51.694;10.006;2022-07-25T06:27:29;99048.31;;;25.04;43.61
66430;BME280;53242;51.694;10.006;2022-07-25T06:29:52;99042.47;;;25.24;43.70
66430;BME280;53242;51.694;10.006;2022-07-25T06:32:14;99038.69;;;25.25;43.62
66430;BME280;53242;51.694;10.006;2022-07-25T06:34:37;99048.28;;;25.46;42.99
66430;BME280;53242;51.694;10.006;2022-07-25T06:36:59;99039.88;;;25.47;43.35
66430;BME280;53242;51.694;10.006;2022-07-25T06:39:22;99043.44;;;25.56;43.14
66430;BME280;53242;51.694;10.006;2022-07-25T06:41:45;99027.41;;;25.60;43.33
66430;BME280;53242;51.694;10.006;2022-07-25T06:44:13;99021.47;;;25.72;42.90
66430;BME280;53242;51.694;10.006;2022-07-25T06:46:35;99013.13;;;25.59;42.81
66430;BME280;53242;51.694;10.006;2022-07-25T06:48:58;99010.88;;;25.61;42.64
66430;BME280;53242;51.694;10.006;2022-07-25T06:51:21;99006.41;;;25.80;42.54
66430;BME280;53242;51.694;10.006;2022-07-25T06:53:44;99008.31;;;25.79;42.66
66430;BME280;53242;51.694;10.006;2022-07-25T06:56:07;99002.41;;;25.77;42.71
66430;BME280;53242;51.694;10.006;2022-07-25T06:58:30;99002.47;;;25.86;42.57
66430;BME280;53242;51.694;10.006;2022-07-25T07:00:52;98998.59;;;26.01;42.30
66430;BME280;53242;51.694;10.006;2022-07-25T07:03:15;98998.88;;;26.22;42.22
66430;BME280;53242;51.694;10.006;2022-07-25T07:05:38;99007.09;;;26.39;41.76
66430;BME280;53242;51.694;10.006;2022-07-25T07:08:01;98995.50;;;26.48;41.47
66430;BME280;53242;51.694;10.006;2022-07-25T07:10:25;99001.13;;;26.60;40.89
66430;BME280;53242;51.694;10.006;2022-07-25T07:12:49;98989.56;;;26.77;40.64
66430;BME280;53242;51.694;10.006;2022-07-25T07:15:12;98988.50;;;26.87;40.72
66430;BME280;53242;51.694;10.006;2022-07-25T07:17:35;98989.28;;;26.96;40.50
66430;BME280;53242;51.694;10.006;2022-07-25T07:19:57;98984.69;;;27.14;40.03
66430;BME280;53242;51.694;10.006;2022-07-25T07:22:20;98986.44;;;27.28;40.18
66430;BME280;53242;51.694;10.006;2022-07-25T07:24:42;98983.41;;;27.38;39.66
66430;BME280;53242;51.694;10.006;2022-07-25T07:27:05;98972.44;;;27.52;39.44
66430;BME280;53242;51.694;10.006;2022-07-25T07:29:27;98979.59;;;27.65;39.27
66430;BME280;53242;51.694;10.006;2022-07-25T07:31:50;98978.31;;;27.80;39.05
66430;BME280;53242;51.694;10.006;2022-07-25T07:34:12;98977.03;;;27.86;38.90
66430;BME280;53242;51.694;10.006;2022-07-25T07:36:36;98976.03;;;27.91;38.95
66430;BME280;53242;51.694;10.006;2022-07-25T07:38:58;98970.91;;;27.98;38.91
66430;BME280;53242;51.694;10.006;2022-07-25T07:41:20;98965.00;;;27.96;38.95
66430;BME280;53242;51.694;10.006;2022-07-25T07:43:43;98970.25;;;28.01;38.63
66430;BME280;53242;51.694;10.006;2022-07-25T07:46:06;98965.78;;;28.14;38.44
66430;BME280;53242;51.694;10.006;2022-07-25T07:48:29;98963.06;;;28.14;38.33
66430;BME280;53242;51.694;10.006;2022-07-25T07:50:52;98964.03;;;28.18;38.67
66430;BME280;53242;51.694;10.006;2022-07-25T07:53:14;98955.97;;;28.31;38.38
66430;BME280;53242;51.694;10.006;2022-07-25T07:55:37;98953.53;;;28.47;37.91
66430;BME280;53242;51.694;10.006;2022-07-25T07:58:05;98950.88;;;28.68;37.68
66430;BME280;53242;51.694;10.006;2022-07-25T08:00:29;98951.59;;;28.77;37.84
66430;BME280;53242;51.694;10.006;2022-07-25T08:02:53;98954.41;;;28.90;37.64
66430;BME280;53242;51.694;10.006;2022-07-25T08:05:24;98939.31;;;29.01;37.35
66430;BME280;53242;51.694;10.006;2022-07-25T08:07:47;98939.97;;;29.19;37.19
66430;BME280;53242;51.694;10.006;2022-07-25T08:10:12;98936.59;;;29.43;37.04
66430;BME280;53242;51.694;10.006;2022-07-25T08:12:39;98938.47;;;29.64;36.50
66430;BME280;53242;51.694;10.006;2022-07-25T08:15:02;98935.53;;;29.69;36.11
66430;BME280;53242;51.694;10.006;2022-07-25T08:17:25;98924.22;;;29.79;35.92
66430;BME280;53242;51.694;10.006;2022-07-25T08:19:47;98927.84;;;29.83;35.83
66430;BME280;53242;51.694;10.006;2022-07-25T08:22:10;98928.69;;;29.96;35.57
66430;BME280;53242;51.694;10.006;2022-07-25T08:24:32;98910.88;;;30.11;35.70
66430;BME280;53242;51.694;10.006;2022-07-25T08:26:55;98914.88;;;30.26;35.19
66430;BME280;53242;51.694;10.006;2022-07-25T08:29:17;98910.34;;;30.43;34.63
66430;BME280;53242;51.694;10.006;2022-07-25T08:31:39;98906.34;;;30.65;34.05
66430;BME280;53242;51.694;10.006;2022-07-25T08:34:02;98900.66;;;30.82;33.73
66430;BME280;53242;51.694;10.006;2022-07-25T08:36:24;98892.63;;;31.02;33.67
66430;BME280;53242;51.694;10.006;2022-07-25T08:38:47;98902.81;;;31.18;32.58
66430;BME280;53242;51.694;10.006;2022-07-25T08:41:09;98892.53;;;31.27;32.00
66430;BME280;53242;51.694;10.006;2022-07-25T08:43:33;98895.91;;;31.36;31.78
66430;BME280;53242;51.694;10.006;2022-07-25T08:45:59;98904.66;;;31.58;31.20
66430;BME280;53242;51.694;10.006;2022-07-25T08:48:23;98899.31;;;31.77;31.06
66430;BME280;53242;51.694;10.006;2022-07-25T08:50:47;98892.47;;;31.84;30.45
66430;BME280;53242;51.694;10.006;2022-07-25T08:53:09;98896.53;;;31.74;30.49
66430;BME280;53242;51.694;10.006;2022-07-25T08:55:32;98896.25;;;31.95;30.42
66430;BME280;53242;51.694;10.006;2022-07-25T08:57:55;98894.84;;;32.01;30.12
66430;BME280;53242;51.694;10.006;2022-07-25T09:00:21;98890.88;;;32.14;30.33
66430;BME280;53242;51.694;10.006;2022-07-25T09:02:53;98888.94;;;32.15;29.74
66430;BME280;53242;51.694;10.006;2022-07-25T09:05:16;98884.47;;;32.23;29.91
66430;BME280;53242;51.694;10.006;2022-07-25T09:07:40;98885.41;;;32.30;29.92
66430;BME280;53242;51.694;10.006;2022-07-25T09:10:18;98877.28;;;32.34;29.73
66430;BME280;53242;51.694;10.006;2022-07-25T09:12:50;98875.44;;;32.38;29.98
66430;BME280;53242;51.694;10.006;2022-07-25T09:15:22;98882.63;;;32.46;29.64
66430;BME280;53242;51.694;10.006;2022-07-25T09:17:49;98868.16;;;32.62;29.61
66430;BME280;53242;51.694;10.006;2022-07-25T09:20:12;98862.84;;;32.69;29.59
66430;BME280;53242;51.694;10.006;2022-07-25T09:22:44;98863.16;;;32.84;29.84
66430;BME280;53242;51.694;10.006;2022-07-25T09:25:18;98861.84;;;32.97;28.81
66430;BME280;53242;51.694;10.006;2022-07-25T09:27:41;98863.28;;;33.10;29.65
66430;BME280;53242;51.694;10.006;2022-07-25T09:30:12;98850.97;;;33.01;29.18
66430;BME280;53242;51.694;10.006;2022-07-25T09:32:34;98851.06;;;33.04;29.51
66430;BME280;53242;51.694;10.006;2022-07-25T09:34:57;98857.53;;;33.16;29.03
66430;BME280;53242;51.694;10.006;2022-07-25T09:37:25;98852.25;;;33.26;28.90
66430;BME280;53242;51.694;10.006;2022-07-25T09:39:49;98852.75;;;33.32;29.25
66430;BME280;53242;51.694;10.006;2022-07-25T09:42:27;98854.53;;;33.44;28.71
66430;BME280;53242;51.694;10.006;2022-07-25T09:47:33;98839.38;;;33.50;28.43
66430;BME280;53242;51.694;10.006;2022-07-25T09:49:56;98837.75;;;33.69;28.64
66430;BME280;53242;51.694;10.006;2022-07-25T09:52:19;98842.00;;;33.66;28.58
66430;BME280;53242;51.694;10.006;2022-07-25T09:54:41;98837.75;;;33.69;28.57
66430;BME280;53242;51.694;10.006;2022-07-25T09:57:04;98835.00;;;33.69;28.33
66430;BME280;53242;51.694;10.006;2022-07-25T09:59:27;98825.28;;;33.95;28.56
66430;BME280;53242;51.694;10.006;2022-07-25T10:02:05;98830.00;;;33.74;28.09
66430;BME280;53242;51.694;10.006;2022-07-25T10:07:28;98816.31;;;33.74;28.47
66430;BME280;53242;51.694;10.006;2022-07-25T10:09:54;98811.69;;;33.78;28.93
66430;BME280;53242;51.694;10.006;2022-07-25T10:12:21;98812.88;;;33.77;28.38
66430;BME280;53242;51.694;10.006;2022-07-25T10:15:09;98815.53;;;33.97;28.24
66430;BME280;53242;51.694;10.006;2022-07-25T10:17:32;98815.63;;;34.04;28.24
66430;BME280;53242;51.694;10.006;2022-07-25T10:19:54;98812.63;;;33.86;28.07
66430;BME280;53242;51.694;10.006;2022-07-25T10:22:17;98799.63;;;33.56;28.40
66430;BME280;53242;51.694;10.006;2022-07-25T10:24:44;98806.75;;;33.61;27.78
66430;BME280;53242;51.694;10.006;2022-07-25T10:27:08;98804.72;;;33.81;27.52
66430;BME280;53242;51.694;10.006;2022-07-25T10:29:33;98799.06;;;33.93;28.03
66430;BME280;53242;51.694;10.006;2022-07-25T10:32:04;98806.41;;;34.16;28.07
66430;BME280;53242;51.694;10.006;2022-07-25T10:34:29;98803.88;;;34.04;27.13
66430;BME280;53242;51.694;10.006;2022-07-25T10:36:54;98798.22;;;33.89;27.26
66430;BME280;53242;51.694;10.006;2022-07-25T10:39:18;98791.53;;;34.14;27.63
66430;BME280;53242;51.694;10.006;2022-07-25T10:41:51;98789.28;;;34.23;27.50
66430;BME280;53242;51.694;10.006;2022-07-25T10:44:15;98789.16;;;34.42;26.73
66430;BME280;53242;51.694;10.006;2022-07-25T10:46:37;98785.75;;;34.53;25.44
66430;BME280;53242;51.694;10.006;2022-07-25T10:49:01;98791.66;;;34.55;25.38
66430;BME280;53242;51.694;10.006;2022-07-25T10:51:34;98782.84;;;34.38;25.43
66430;BME280;53242;51.694;10.006;2022-07-25T10:53:57;98791.13;;;34.42;25.07
66430;BME280;53242;51.694;10.006;2022-07-25T10:56:24;98784.41;;;34.36;24.18
66430;BME280;53242;51.694;10.006;2022-07-25T10:58:58;98789.63;;;34.18;24.28
66430;BME280;53242;51.694;10.006;2022-07-25T11:01:49;98785.75;;;34.22;25.33
66430;BME280;53242;51.694;10.006;2022-07-25T11:04:14;98774.19;;;34.33;25.55
66430;BME280;53242;51.694;10.006;2022-07-25T11:06:38;98773.34;;;34.32;25.31
66430;BME280;53242;51.694;10.006;2022-07-25T11:09:11;98785.06;;;34.29;24.96
66430;BME280;53242;51.694;10.006;2022-07-25T11:11:39;98780.91;;;34.39;25.08
66430;BME280;53242;51.694;10.006;2022-07-25T11:14:04;98775.63;;;34.53;25.10
66430;BME280;53242;51.694;10.006;2022-07-25T11:16:27;98768.69;;;34.67;25.35
66430;BME280;53242;51.694;10.006;2022-07-25T11:18:49;98764.00;;;34.67;25.29
66430;BME280;53242;51.694;10.006;2022-07-25T11:21:12;98758.59;;;34.74;25.60
66430;BME280;53242;51.694;10.006;2022-07-25T11:23:34;98759.72;;;34.66;25.87
66430;BME280;53242;51.694;10.006;2022-07-25T11:26:24;98748.16;;;34.50;25.88
66430;BME280;53242;51.694;10.006;2022-07-25T11:28:47;98750.00;;;34.38;25.28
66430;BME280;53242;51.694;10.006;2022-07-25T11:31:11;98753.50;;;34.39;25.15
66430;BME280;53242;51.694;10.006;2022-07-25T11:33:36;98752.16;;;34.56;25.49
66430;BME280;53242;51.694;10.006;2022-07-25T11:36:00;98743.63;;;34.65;25.17
66430;BME280;53242;51.694;10.006;2022-07-25T11:38:22;98749.78;;;34.54;25.18
66430;BME280;53242;51.694;10.006;2022-07-25T11:40:45;98747.41;;;34.53;25.30
66430;BME280;53242;51.694;10.006;2022-07-25T11:43:18;98733.28;;;34.85;25.03
66430;BME280;53242;51.694;10.006;2022-07-25T11:45:41;98728.34;;;35.01;24.91
66430;BME280;53242;51.694;10.006;2022-07-25T11:48:09;98725.84;;;35.30;24.90
66430;BME280;53242;51.694;10.006;2022-07-25T11:50:34;98733.97;;;35.16;23.60
66430;BME280;53242;51.694;10.006;2022-07-25T11:52:59;98740.25;;;35.20;24.09
66430;BME280;53242;51.694;10.006;2022-07-25T11:55:28;98726.16;;;35.21;24.15
66430;BME280;53242;51.694;10.006;2022-07-25T11:57:57;98732.19;;;35.38;23.69
66430;BME280;53242;51.694;10.006;2022-07-25T12:00:20;98740.19;;;35.61;23.98
66430;BME280;53242;51.694;10.006;2022-07-25T12:02:44;98735.47;;;35.58;23.88
66430;BME280;53242;51.694;10.006;2022-07-25T12:05:09;98725.66;;;35.57;23.85
66430;BME280;53242;51.694;10.006;2022-07-25T12:07:50;98731.94;;;35.54;23.64
66430;BME280;53242;51.694;10.006;2022-07-25T12:10:18;98734.88;;;35.86;23.36
66430;BME280;53242;51.694;10.006;2022-07-25T12:15:04;98730.19;;;35.87;23.38
66430;BME280;53242;51.694;10.006;2022-07-25T12:17:26;98729.81;;;35.92;23.24
66430;BME280;53242;51.694;10.006;2022-07-25T12:19:49;98728.22;;;35.87;23.43
66430;BME280;53242;51.694;10.006;2022-07-25T12:22:12;98716.28;;;35.58;23.42
66430;BME280;53242;51.694;10.006;2022-07-25T12:24:34;98717.69;;;35.37;23.98
66430;BME280;53242;51.694;10.006;2022-07-25T12:26:57;98723.63;;;35.47;23.59
66430;BME280;53242;51.694;10.006;2022-07-25T12:29:19;98717.50;;;35.71;23.27
66430;BME280;53242;51.694;10.006;2022-07-25T12:31:42;98730.97;;;35.91;23.12
66430;BME280;53242;51.694;10.006;2022-07-25T12:34:04;98722.97;;;35.68;22.93
66430;BME280;53242;51.694;10.006;2022-07-25T12:36:27;98708.75;;;35.48;23.05
66430;BME280;53242;51.694;10.006;2022-07-25T12:38:49;98710.69;;;35.44;23.21
66430;BME280;53242;51.694;10.006;2022-07-25T12:41:12;98721.22;;;34.93;24.13